createdAt,value
2023-07-07T00:00:09.441Z,9.711739
2023-07-07T00:01:09.425Z,9.711659
2023-07-07T00:02:09.498Z,9.711488
2023-07-07T00:03:09.448Z,9.711544
2023-07-07T00:04:09.448Z,9.711532
2023-07-07T00:05:09.399Z,9.711687
2023-07-07T00:06:09.384Z,9.711617
2023-07-07T00:07:09.390Z,9.711686
2023-07-07T00:08:09.402Z,9.711661
2023-07-07T00:09:09.370Z,9.711677
2023-07-07T00:10:09.383Z,9.711735
2023-07-07T00:11:09.345Z,9.711424
2023-07-07T00:12:09.336Z,9.711465
2023-07-07T00:13:09.347Z,9.711774
2023-07-07T00:14:09.323Z,9.711717
2023-07-07T00:15:09.305Z,9.711813
2023-07-07T00:16:09.337Z,9.711721
2023-07-07T00:17:09.296Z,9.711581
2023-07-07T00:18:09.291Z,9.711785
2023-07-07T00:29:00.292Z,9.711391
2023-07-07T00:30:00.270Z,9.711536
2023-07-07T00:31:00.614Z,9.711556
2023-07-07T00:32:00.251Z,9.711579
2023-07-07T00:33:00.264Z,9.711621
2023-07-07T00:34:00.237Z,9.711672
2023-07-07T00:35:00.244Z,9.711648
2023-07-07T00:36:00.197Z,9.711449
2023-07-07T00:37:00.226Z,9.711666
2023-07-07T00:38:00.199Z,9.711776
2023-07-07T00:39:00.193Z,9.711735
2023-07-07T00:40:00.227Z,9.711694
2023-07-07T00:41:00.283Z,9.711719
2023-07-07T00:42:00.164Z,9.711790
2023-07-07T00:43:00.145Z,9.711840
2023-07-07T00:44:00.164Z,9.711791
2023-07-07T00:45:00.126Z,9.711802
2023-07-07T00:46:00.161Z,9.711788
2023-07-07T00:47:00.155Z,9.711830
2023-07-07T00:48:00.207Z,9.711774
2023-07-07T00:49:00.104Z,9.712353
2023-07-07T00:50:00.138Z,9.712250
2023-07-07T00:51:00.262Z,9.711937
2023-07-07T00:52:00.102Z,9.712070
2023-07-07T00:53:00.059Z,9.711991
2023-07-07T00:54:00.057Z,9.712153
2023-07-07T00:55:00.062Z,9.711983
2023-07-07T00:56:00.054Z,9.711914
2023-07-07T00:57:00.031Z,9.711792
2023-07-07T00:58:00.017Z,9.711974
2023-07-07T00:59:00.010Z,9.711881
2023-07-07T01:00:00.042Z,9.711775
2023-07-07T01:01:00.320Z,9.711866
2023-07-07T01:02:00.094Z,9.711798
2023-07-07T01:03:00.029Z,9.711866
2023-07-07T01:04:00.024Z,9.711995
2023-07-07T01:04:59.983Z,9.712012
2023-07-07T01:05:59.966Z,9.711859
2023-07-07T01:06:59.973Z,9.711772
2023-07-07T01:07:59.952Z,9.712002
2023-07-07T01:08:59.956Z,9.711862
2023-07-07T01:10:00.634Z,9.711597
2023-07-07T01:11:00.926Z,9.711667
2023-07-07T01:11:59.934Z,9.711873
2023-07-07T01:12:59.889Z,9.711922
2023-07-07T01:13:59.937Z,9.711863
2023-07-07T01:14:59.892Z,9.711821
2023-07-07T01:15:59.930Z,9.711817
2023-07-07T01:16:59.871Z,9.711792
2023-07-07T01:17:59.889Z,9.711772
2023-07-07T01:18:59.888Z,9.711982
2023-07-07T01:19:59.863Z,9.711823
2023-07-07T01:20:59.848Z,9.711809
2023-07-07T01:21:59.848Z,9.712029
2023-07-07T01:22:59.824Z,9.711741
2023-07-07T01:23:59.812Z,9.711784
2023-07-07T01:24:59.810Z,9.711836
2023-07-07T01:25:59.801Z,9.711774
2023-07-07T01:26:59.815Z,9.711784
2023-07-07T01:27:59.802Z,9.711735
2023-07-07T01:28:59.833Z,9.711732
2023-07-07T01:29:59.782Z,9.711859
2023-07-07T01:30:59.996Z,9.711990
2023-07-07T01:31:59.843Z,9.712049
2023-07-07T01:32:59.809Z,9.711993
2023-07-07T01:33:59.763Z,9.712037
2023-07-07T01:34:59.726Z,9.711793
2023-07-07T01:35:59.726Z,9.711771
2023-07-07T01:36:59.721Z,9.711825
2023-07-07T01:37:59.715Z,9.711789
2023-07-07T01:38:59.693Z,9.711767
2023-07-07T01:39:59.689Z,9.711806
2023-07-07T01:41:00.679Z,9.711736
2023-07-07T01:41:59.669Z,9.711731
2023-07-07T01:43:00.621Z,9.711859
2023-07-07T01:43:59.657Z,9.711833
2023-07-07T01:44:59.707Z,9.711861
2023-07-07T01:45:59.660Z,9.711841
2023-07-07T01:46:59.632Z,9.711776
2023-07-07T01:47:59.721Z,9.711716
2023-07-07T01:48:59.609Z,9.711688
2023-07-07T01:49:59.644Z,9.711936
2023-07-07T01:50:59.849Z,9.711940
2023-07-07T01:51:59.612Z,9.711841
2023-07-07T01:52:59.585Z,9.711815
2023-07-07T01:53:59.589Z,9.711941
2023-07-07T01:54:59.619Z,9.711943
2023-07-07T01:55:59.543Z,9.711931
2023-07-07T01:56:59.548Z,9.711815
2023-07-07T01:57:59.536Z,9.711886
2023-07-07T01:59:00.141Z,9.711884
2023-07-07T01:59:59.513Z,9.711846
2023-07-07T02:00:59.617Z,9.711827
2023-07-07T02:01:59.565Z,9.711839
2023-07-07T02:02:59.543Z,9.711887
2023-07-07T02:03:59.508Z,9.711756
2023-07-07T02:04:59.542Z,9.712176
2023-07-07T02:05:59.484Z,9.711918
2023-07-07T02:06:59.455Z,9.711792
2023-07-07T02:07:59.644Z,9.711901
2023-07-07T02:08:59.458Z,9.711667
2023-07-07T02:09:59.473Z,9.711977
2023-07-07T02:10:59.724Z,9.711973
2023-07-07T02:11:59.419Z,9.711926
2023-07-07T02:12:59.480Z,9.712033
2023-07-07T02:13:59.480Z,9.712014
2023-07-07T02:14:59.430Z,9.711905
2023-07-07T02:15:59.457Z,9.711901
2023-07-07T02:16:59.391Z,9.711740
2023-07-07T02:17:59.471Z,9.711835
2023-07-07T02:18:59.364Z,9.711785
2023-07-07T02:19:59.370Z,9.711847
2023-07-07T02:20:59.624Z,9.711872
2023-07-07T02:21:59.382Z,9.712079
2023-07-07T02:22:59.336Z,9.712066
2023-07-07T02:23:59.323Z,9.712320
2023-07-07T02:24:59.321Z,9.712007
2023-07-07T02:25:59.301Z,9.711777
2023-07-07T02:26:59.370Z,9.711726
2023-07-07T02:27:59.311Z,9.711658
2023-07-07T02:28:59.298Z,9.711820
2023-07-07T02:29:59.275Z,9.712039
2023-07-07T02:30:59.584Z,9.712214
2023-07-07T02:31:59.372Z,9.712016
2023-07-07T02:32:59.274Z,9.711741
2023-07-07T02:33:59.251Z,9.711812
2023-07-07T02:34:59.228Z,9.712027
2023-07-07T02:35:59.230Z,9.711803
2023-07-07T02:36:59.243Z,9.711818
2023-07-07T02:37:59.212Z,9.711782
2023-07-07T02:38:59.206Z,9.711825
2023-07-07T02:39:59.197Z,9.711687
2023-07-07T02:40:59.431Z,9.712119
2023-07-07T02:41:59.187Z,9.711960
2023-07-07T02:42:59.213Z,9.711770
2023-07-07T02:43:59.184Z,9.711748
2023-07-07T02:44:59.151Z,9.711680
2023-07-07T02:45:59.170Z,9.711926
2023-07-07T02:46:59.197Z,9.712231
2023-07-07T02:47:59.189Z,9.712282
2023-07-07T02:48:59.139Z,9.712178
2023-07-07T02:49:59.127Z,9.711784
2023-07-07T02:50:59.456Z,9.711547
2023-07-07T02:51:59.099Z,9.711543
2023-07-07T02:52:59.090Z,9.711888
2023-07-07T02:53:59.081Z,9.712110
2023-07-07T02:54:59.713Z,9.712208
2023-07-07T02:55:59.057Z,9.711974
2023-07-07T02:56:59.058Z,9.712015
2023-07-07T02:57:59.046Z,9.711987
2023-07-07T02:58:59.039Z,9.711544
2023-07-07T02:59:59.027Z,9.711735
2023-07-07T03:00:59.297Z,9.711679
2023-07-07T03:01:59.015Z,9.711500
2023-07-07T03:02:59.110Z,9.711347
2023-07-07T03:03:59.131Z,9.711637
2023-07-07T03:04:58.994Z,9.711523
2023-07-07T03:05:58.994Z,9.711491
2023-07-07T03:06:59.732Z,9.711445
2023-07-07T03:07:59.001Z,9.711618
2023-07-07T03:08:59.004Z,9.711773
2023-07-07T03:09:59.647Z,9.711911
2023-07-07T03:10:59.941Z,9.712104
2023-07-07T03:11:58.961Z,9.712596
2023-07-07T03:12:58.925Z,9.712374
2023-07-07T03:13:58.980Z,9.711986
2023-07-07T03:14:58.918Z,9.711733
2023-07-07T03:15:58.899Z,9.711792
2023-07-07T03:16:59.008Z,9.711749
2023-07-07T03:17:58.934Z,9.711678
2023-07-07T03:18:58.901Z,9.711713
2023-07-07T03:19:59.916Z,9.711756
2023-07-07T03:20:59.117Z,9.711790
2023-07-07T03:21:58.860Z,9.711749
2023-07-07T03:22:58.854Z,9.711705
2023-07-07T03:23:58.894Z,9.711626
2023-07-07T03:24:58.858Z,9.711582
2023-07-07T03:25:58.911Z,9.711637
2023-07-07T03:26:58.859Z,9.711605
2023-07-07T03:27:58.857Z,9.711654
2023-07-07T03:28:58.806Z,9.711707
2023-07-07T03:29:58.833Z,9.711745
2023-07-07T03:30:59.038Z,9.711707
2023-07-07T03:31:58.795Z,9.711790
2023-07-07T03:32:59.756Z,9.711723
2023-07-07T03:33:58.764Z,9.711751
2023-07-07T03:34:58.768Z,9.711798
2023-07-07T03:35:58.748Z,9.711775
2023-07-07T03:36:58.763Z,9.711785
2023-07-07T03:37:58.748Z,9.711783
2023-07-07T03:38:58.750Z,9.711740
2023-07-07T03:39:58.731Z,9.711717
2023-07-07T03:40:58.918Z,9.711699
2023-07-07T03:41:58.716Z,9.711702
2023-07-07T03:42:58.685Z,9.711737
2023-07-07T03:43:58.689Z,9.711746
2023-07-07T03:44:58.685Z,9.711813
2023-07-07T03:45:58.677Z,9.711790
2023-07-07T03:46:58.851Z,9.711741
2023-07-07T03:47:58.685Z,9.711634
2023-07-07T03:48:58.641Z,9.711564
2023-07-07T03:49:58.631Z,9.711509
2023-07-07T03:50:58.800Z,9.711651
2023-07-07T03:51:58.626Z,9.711717
2023-07-07T03:52:58.629Z,9.711772
2023-07-07T03:53:58.603Z,9.711665
2023-07-07T03:54:58.601Z,9.711643
2023-07-07T03:55:58.592Z,9.711691
2023-07-07T03:56:58.584Z,9.711681
2023-07-07T03:57:58.581Z,9.711778
2023-07-07T03:58:58.562Z,9.711648
2023-07-07T03:59:58.558Z,9.711688
2023-07-07T04:00:58.673Z,9.711705
2023-07-07T04:01:59.524Z,9.711819
2023-07-07T04:02:58.657Z,9.711821
2023-07-07T04:03:58.826Z,9.711824
2023-07-07T04:04:58.670Z,9.711705
2023-07-07T04:05:58.514Z,9.711575
2023-07-07T04:06:58.488Z,9.711571
2023-07-07T04:07:59.501Z,9.711621
2023-07-07T04:08:58.488Z,9.711681
2023-07-07T04:09:58.477Z,9.711537
2023-07-07T04:10:58.705Z,9.711398
2023-07-07T04:11:58.498Z,9.711446
2023-07-07T04:12:58.454Z,9.711378
2023-07-07T04:13:58.502Z,9.711416
2023-07-07T04:14:58.448Z,9.711344
2023-07-07T04:15:58.452Z,9.711481
2023-07-07T04:16:58.477Z,9.711694
2023-07-07T04:17:58.456Z,9.711537
2023-07-07T04:18:58.393Z,9.711702
2023-07-07T04:19:58.410Z,9.711780
2023-07-07T04:20:58.574Z,9.711764
2023-07-07T04:21:58.397Z,9.711823
2023-07-07T04:22:58.765Z,9.711856
2023-07-07T04:23:58.365Z,9.711811
2023-07-07T04:24:58.355Z,9.711675
2023-07-07T04:25:58.348Z,9.711815
2023-07-07T04:26:58.361Z,9.711740
2023-07-07T04:27:58.345Z,9.711700
2023-07-07T04:28:58.336Z,9.711689
2023-07-07T04:29:58.322Z,9.711798
2023-07-07T04:30:58.582Z,9.711725
2023-07-07T04:31:58.359Z,9.711817
2023-07-07T04:32:58.351Z,9.711839
2023-07-07T04:33:58.295Z,9.711718
2023-07-07T04:34:58.265Z,9.711708
2023-07-07T04:35:59.303Z,9.711817
2023-07-07T04:36:58.257Z,9.711837
2023-07-07T04:37:58.288Z,9.711834
2023-07-07T04:38:58.261Z,9.711676
2023-07-07T04:39:58.235Z,9.711869
2023-07-07T04:40:58.389Z,9.711806
2023-07-07T04:41:58.211Z,9.711766
2023-07-07T04:42:58.236Z,9.711691
2023-07-07T04:43:58.231Z,9.711789
2023-07-07T04:44:58.206Z,9.711755
2023-07-07T04:45:58.199Z,9.712011
2023-07-07T04:46:58.184Z,9.711746
2023-07-07T04:47:58.209Z,9.711941
2023-07-07T04:48:58.177Z,9.711724
2023-07-07T04:49:58.195Z,9.711691
2023-07-07T04:50:58.410Z,9.711773
2023-07-07T04:51:58.215Z,9.711828
2023-07-07T04:52:58.149Z,9.711576
2023-07-07T04:53:58.139Z,9.711386
2023-07-07T04:54:58.137Z,9.711476
2023-07-07T04:55:58.162Z,9.711572
2023-07-07T04:56:58.118Z,9.711885
2023-07-07T04:57:58.105Z,9.711812
2023-07-07T04:58:58.106Z,9.711855
2023-07-07T04:59:58.093Z,9.712054
2023-07-07T05:00:58.384Z,9.712031
2023-07-07T05:01:58.152Z,9.711790
2023-07-07T05:02:58.119Z,9.711699
2023-07-07T05:03:58.151Z,9.711966
2023-07-07T05:04:58.045Z,9.711758
2023-07-07T05:05:58.095Z,9.711429
2023-07-07T05:06:58.098Z,9.711394
2023-07-07T05:07:58.014Z,9.711513
2023-07-07T05:08:58.034Z,9.711950
2023-07-07T05:09:58.005Z,9.711652
2023-07-07T05:10:58.966Z,9.711683
2023-07-07T05:11:59.762Z,9.711658
2023-07-07T05:12:58.039Z,9.711650
2023-07-07T05:13:58.141Z,9.711664
2023-07-07T05:14:58.071Z,9.711664
2023-07-07T05:15:57.996Z,9.711652
2023-07-07T05:16:57.961Z,9.711640
2023-07-07T05:18:00.369Z,9.711658
2023-07-07T05:18:59.005Z,9.711645
2023-07-07T05:19:58.689Z,9.711644
2023-07-07T05:20:58.241Z,9.711656
2023-07-07T05:21:57.922Z,9.711664
2023-07-07T05:22:57.953Z,9.711650
2023-07-07T05:23:57.919Z,9.711680
2023-07-07T05:24:57.940Z,9.711713
2023-07-07T05:25:57.906Z,9.711688
2023-07-07T05:26:57.882Z,9.711673
2023-07-07T05:27:57.941Z,9.711653
2023-07-07T05:28:58.010Z,9.711683
2023-07-07T05:29:57.881Z,9.711679
2023-07-07T05:30:58.369Z,9.711625
2023-07-07T05:31:57.882Z,9.711611
2023-07-07T05:32:57.868Z,9.711617
2023-07-07T05:33:57.870Z,9.711622
2023-07-07T05:34:57.911Z,9.711634
2023-07-07T05:35:57.844Z,9.711642
2023-07-07T05:36:58.707Z,9.711649
2023-07-07T05:37:57.850Z,9.711659
2023-07-07T05:38:57.847Z,9.711537
2023-07-07T05:39:57.828Z,9.711647
2023-07-07T05:40:58.471Z,9.711709
2023-07-07T05:41:57.797Z,9.711634
2023-07-07T05:42:57.782Z,9.711658
2023-07-07T05:43:57.783Z,9.711728
2023-07-07T05:44:57.761Z,9.711715
2023-07-07T05:45:58.237Z,9.711892
2023-07-07T05:46:57.747Z,9.711974
2023-07-07T05:47:58.855Z,9.711911
2023-07-07T05:48:57.742Z,9.711965
2023-07-07T05:49:57.750Z,9.711886
2023-07-07T05:50:59.745Z,9.711702
2023-07-07T05:51:57.731Z,9.711696
2023-07-07T05:52:57.713Z,9.711641
2023-07-07T05:53:57.781Z,9.711603
2023-07-07T05:54:57.745Z,9.711591
2023-07-07T05:55:57.697Z,9.711597
2023-07-07T05:56:57.681Z,9.711606
2023-07-07T05:57:57.691Z,9.711587
2023-07-07T05:58:57.683Z,9.711619
2023-07-07T05:59:58.296Z,9.711614
2023-07-07T06:00:57.985Z,9.711607
2023-07-07T06:01:58.346Z,9.711632
2023-07-07T06:02:57.666Z,9.711637
2023-07-07T06:03:57.683Z,9.711649
2023-07-07T06:04:57.636Z,9.711660
2023-07-07T06:05:57.619Z,9.711619
2023-07-07T06:06:57.641Z,9.711646
2023-07-07T06:07:57.600Z,9.711649
2023-07-07T06:08:57.636Z,9.711620
2023-07-07T06:09:57.614Z,9.711610
2023-07-07T06:10:57.924Z,9.711601
2023-07-07T06:11:57.586Z,9.711509
2023-07-07T06:12:57.576Z,9.711571
2023-07-07T06:13:57.618Z,9.711504
2023-07-07T06:14:57.561Z,9.711670
2023-07-07T06:15:58.365Z,9.711674
2023-07-07T06:16:57.550Z,9.711715
2023-07-07T06:17:59.138Z,9.711743
2023-07-07T06:18:57.543Z,9.711682
2023-07-07T06:19:57.520Z,9.711648
2023-07-07T06:20:57.842Z,9.711649
2023-07-07T06:21:57.515Z,9.711593
2023-07-07T06:22:57.533Z,9.711542
2023-07-07T06:23:57.501Z,9.711609
2023-07-07T06:24:57.525Z,9.711605
2023-07-07T06:25:57.497Z,9.711721
2023-07-07T06:26:57.474Z,9.711750
2023-07-07T06:27:57.492Z,9.711737
2023-07-07T06:28:57.453Z,9.711773
2023-07-07T06:29:57.469Z,9.711840
2023-07-07T06:30:57.759Z,9.711625
2023-07-07T06:31:57.482Z,9.711588
2023-07-07T06:32:57.483Z,9.711795
2023-07-07T06:33:57.463Z,9.711675
2023-07-07T06:34:57.415Z,9.711640
2023-07-07T06:35:57.416Z,9.711581
2023-07-07T06:36:57.448Z,9.711784
2023-07-07T06:37:57.411Z,9.711765
2023-07-07T06:38:57.450Z,9.711720
2023-07-07T06:39:57.393Z,9.711650
2023-07-07T06:40:57.693Z,9.711670
2023-07-07T06:41:57.372Z,9.711611
2023-07-07T06:42:57.368Z,9.711387
2023-07-07T06:43:57.832Z,9.711720
2023-07-07T06:44:57.363Z,9.711706
2023-07-07T06:45:57.377Z,9.711678
2023-07-07T06:46:57.356Z,9.711822
2023-07-07T06:47:57.378Z,9.711874
2023-07-07T06:48:57.694Z,9.711669
2023-07-07T06:49:58.316Z,9.711715
2023-07-07T06:50:57.495Z,9.711943
2023-07-07T06:51:57.388Z,9.712332
2023-07-07T06:52:57.319Z,9.712544
2023-07-07T06:53:57.293Z,9.712236
2023-07-07T06:54:57.310Z,9.712214
2023-07-07T06:55:57.283Z,9.712225
2023-07-07T06:56:57.272Z,9.712240
2023-07-07T06:57:57.285Z,9.712148
2023-07-07T06:58:57.818Z,9.711967
2023-07-07T06:59:57.284Z,9.712141
2023-07-07T07:00:57.529Z,9.711926
2023-07-07T07:01:57.260Z,9.711999
2023-07-07T07:02:57.929Z,9.711950
2023-07-07T07:03:57.369Z,9.711972
2023-07-07T07:04:57.219Z,9.711860
2023-07-07T07:05:57.288Z,9.711924
2023-07-07T07:06:57.235Z,9.712197
2023-07-07T07:07:57.213Z,9.712334
2023-07-07T07:08:57.205Z,9.712306
2023-07-07T07:09:57.191Z,9.712070
2023-07-07T07:10:57.292Z,9.711914
2023-07-07T07:11:57.181Z,9.712076
2023-07-07T07:12:57.176Z,9.712078
2023-07-07T07:13:57.184Z,9.712056
2023-07-07T07:14:57.147Z,9.712239
2023-07-07T07:15:57.179Z,9.712090
2023-07-07T07:16:57.206Z,9.712094
2023-07-07T07:17:57.170Z,9.712081
2023-07-07T07:18:57.158Z,9.712086
2023-07-07T07:19:57.118Z,9.711938
2023-07-07T07:20:57.482Z,9.712129
2023-07-07T07:21:57.123Z,9.712266
2023-07-07T07:22:57.108Z,9.711945
2023-07-07T07:23:57.121Z,9.712046
2023-07-07T07:24:57.358Z,9.711655
2023-07-07T07:25:57.120Z,9.711493
2023-07-07T07:26:57.067Z,9.711869
2023-07-07T07:27:57.057Z,9.711973
2023-07-07T07:28:57.059Z,9.711752
2023-07-07T07:29:57.082Z,9.711459
2023-07-07T07:30:57.208Z,9.711528
2023-07-07T07:31:57.064Z,9.711758
2023-07-07T07:32:57.810Z,9.711872
2023-07-07T07:33:57.014Z,9.711812
2023-07-07T07:34:57.029Z,9.711734
2023-07-07T07:35:57.002Z,9.711626
2023-07-07T07:36:56.996Z,9.711665
2023-07-07T07:37:57.007Z,9.711427
2023-07-07T07:38:56.996Z,9.711298
2023-07-07T07:39:56.975Z,9.711440
2023-07-07T07:40:57.164Z,9.711572
2023-07-07T07:41:56.966Z,9.711761
2023-07-07T07:42:56.956Z,9.711848
2023-07-07T07:43:56.941Z,9.711871
2023-07-07T07:44:56.933Z,9.712080
2023-07-07T07:45:56.953Z,9.711595
2023-07-07T07:46:57.101Z,9.711595
2023-07-07T07:47:56.971Z,9.711934
2023-07-07T07:48:56.906Z,9.712029
2023-07-07T07:49:56.918Z,9.711798
2023-07-07T07:50:57.143Z,9.711712
2023-07-07T07:51:56.890Z,9.711611
2023-07-07T07:52:56.902Z,9.711577
2023-07-07T07:53:56.896Z,9.711535
2023-07-07T07:54:56.895Z,9.711535
2023-07-07T07:55:56.871Z,9.711581
2023-07-07T07:56:56.852Z,9.711631
2023-07-07T07:57:56.864Z,9.711759
2023-07-07T07:58:56.840Z,9.711636
2023-07-07T07:59:56.823Z,9.711709
2023-07-07T08:00:57.017Z,9.711841
2023-07-07T08:01:56.896Z,9.712082
2023-07-07T08:02:56.948Z,9.712111
2023-07-07T08:03:56.915Z,9.711602
2023-07-07T08:04:56.812Z,9.711632
2023-07-07T08:05:56.790Z,9.711568
2023-07-07T08:06:57.324Z,9.711638
2023-07-07T08:07:56.771Z,9.711648
2023-07-07T08:08:56.787Z,9.711628
2023-07-07T08:09:56.764Z,9.711814
2023-07-07T08:11:10.018Z,9.711774
2023-07-07T08:11:59.369Z,9.711632
2023-07-07T08:12:56.763Z,9.711540
2023-07-07T08:13:56.743Z,9.711547
2023-07-07T08:14:56.713Z,9.711476
2023-07-07T08:15:56.805Z,9.711457
2023-07-07T08:16:56.728Z,9.711435
2023-07-07T08:17:56.863Z,9.711404
2023-07-07T08:18:56.692Z,9.711503
2023-07-07T08:19:56.681Z,9.711492
2023-07-07T08:20:56.737Z,9.711569
2023-07-07T08:21:56.669Z,9.711543
2023-07-07T08:22:56.664Z,9.711561
2023-07-07T08:23:56.645Z,9.711552
2023-07-07T08:24:56.640Z,9.711587
2023-07-07T08:26:57.638Z,9.711552
2023-07-07T08:28:57.621Z,9.711473
2023-07-07T08:29:56.621Z,9.711404
2023-07-07T08:30:56.909Z,9.711514
2023-07-07T08:31:56.593Z,9.711588
2023-07-07T08:32:56.595Z,9.711547
2023-07-07T08:34:00.850Z,9.711511
2023-07-07T08:34:58.615Z,9.711556
2023-07-07T08:35:56.739Z,9.711637
2023-07-07T08:36:56.555Z,9.711691
2023-07-07T08:37:56.547Z,9.711564
2023-07-07T08:38:56.564Z,9.711648
2023-07-07T08:39:56.548Z,9.711545
2023-07-07T08:40:56.708Z,9.711596
2023-07-07T08:41:56.558Z,9.711611
2023-07-07T08:42:56.541Z,9.711659
2023-07-07T08:43:56.514Z,9.711684
2023-07-07T08:44:56.481Z,9.711585
2023-07-07T08:45:58.463Z,9.711773
2023-07-07T08:46:56.575Z,9.711727
2023-07-07T08:47:56.541Z,9.711669
2023-07-07T08:48:56.463Z,9.711573
2023-07-07T08:49:57.345Z,9.711604
2023-07-07T08:50:56.576Z,9.711833
2023-07-07T08:51:57.771Z,9.711763
2023-07-07T08:52:57.291Z,9.712193
2023-07-07T08:54:57.416Z,9.712572
2023-07-07T08:55:56.398Z,9.712584
2023-07-07T08:56:56.391Z,9.712457
2023-07-07T08:57:58.738Z,9.712383
2023-07-07T08:58:57.413Z,9.712216
2023-07-07T08:59:56.374Z,9.711978
2023-07-07T09:00:56.664Z,9.711974
2023-07-07T09:01:56.466Z,9.711960
2023-07-07T09:02:56.470Z,9.712002
2023-07-07T09:03:58.104Z,9.711931
2023-07-07T09:04:56.460Z,9.712007
2023-07-07T09:05:56.328Z,9.711864
2023-07-07T09:06:56.317Z,9.711803
2023-07-07T09:07:56.300Z,9.711980
2023-07-07T09:08:56.318Z,9.711981
2023-07-07T09:09:58.182Z,9.712128
2023-07-07T09:10:56.446Z,9.712113
2023-07-07T09:11:56.283Z,9.711740
2023-07-07T09:12:56.274Z,9.711874
2023-07-07T09:13:56.310Z,9.711881
2023-07-07T09:14:56.287Z,9.711973
2023-07-07T09:15:57.939Z,9.712076
2023-07-07T09:16:57.913Z,9.711992
2023-07-07T09:17:56.300Z,9.712247
2023-07-07T09:18:56.235Z,9.712422
2023-07-07T09:19:56.223Z,9.712239
2023-07-07T09:20:57.181Z,9.712047
2023-07-07T09:21:56.461Z,9.711870
2023-07-07T09:22:56.202Z,9.711797
2023-07-07T09:23:56.191Z,9.711694
2023-07-07T09:24:56.819Z,9.711623
2023-07-07T09:25:56.208Z,9.711660
2023-07-07T09:26:56.201Z,9.711657
2023-07-07T09:27:56.159Z,9.711656
2023-07-07T09:28:56.144Z,9.711651
2023-07-07T09:29:56.151Z,9.711661
2023-07-07T09:30:56.195Z,9.711646
2023-07-07T09:31:56.210Z,9.711653
2023-07-07T09:32:56.146Z,9.711692
2023-07-07T09:33:56.910Z,9.711672
2023-07-07T09:34:56.114Z,9.711684
2023-07-07T09:35:56.095Z,9.711693
2023-07-07T09:36:56.103Z,9.711664
2023-07-07T09:37:56.103Z,9.711662
2023-07-07T09:38:56.096Z,9.711674
2023-07-07T09:39:57.415Z,9.711694
2023-07-07T09:40:56.294Z,9.711700
2023-07-07T09:41:56.051Z,9.711709
2023-07-07T09:42:56.037Z,9.711677
2023-07-07T09:43:56.051Z,9.711684
2023-07-07T09:44:56.022Z,9.711668
2023-07-07T09:45:56.965Z,9.711662
2023-07-07T09:46:56.084Z,9.711692
2023-07-07T09:47:56.075Z,9.711705
2023-07-07T09:48:56.066Z,9.711685
2023-07-07T09:49:55.993Z,9.711674
2023-07-07T09:50:56.163Z,9.711697
2023-07-07T09:51:57.044Z,9.711671
2023-07-07T09:52:55.964Z,9.711654
2023-07-07T09:53:56.949Z,9.711688
2023-07-07T09:54:55.949Z,9.711681
2023-07-07T09:55:56.004Z,9.711674
2023-07-07T09:56:55.943Z,9.711717
2023-07-07T09:57:55.941Z,9.711636
2023-07-07T09:58:55.932Z,9.711673
2023-07-07T09:59:55.921Z,9.711682
2023-07-07T10:00:55.930Z,9.711721
2023-07-07T10:01:56.025Z,9.711671
2023-07-07T10:02:55.926Z,9.711746
2023-07-07T10:03:55.897Z,9.711722
2023-07-07T10:04:55.873Z,9.711694
2023-07-07T10:05:57.609Z,9.711692
2023-07-07T10:06:55.889Z,9.711695
2023-07-07T10:07:55.872Z,9.711681
2023-07-07T10:08:55.838Z,9.711719
2023-07-07T10:09:55.837Z,9.711644
2023-07-07T10:10:55.838Z,9.711775
2023-07-07T10:12:57.805Z,9.711767
2023-07-07T10:13:55.825Z,9.711694
2023-07-07T10:14:55.830Z,9.711757
2023-07-07T10:15:55.943Z,9.711693
2023-07-07T10:16:55.813Z,9.711757
2023-07-07T10:17:57.598Z,9.711680
2023-07-07T10:18:55.764Z,9.711877
2023-07-07T10:19:55.763Z,9.711895
2023-07-07T10:20:55.762Z,9.711745
2023-07-07T10:21:55.745Z,9.711859
2023-07-07T10:22:55.727Z,9.711695
2023-07-07T10:23:55.725Z,9.711765
2023-07-07T10:24:55.715Z,9.711739
2023-07-07T10:25:55.744Z,9.711627
2023-07-07T10:26:55.732Z,9.711617
2023-07-07T10:27:55.682Z,9.711732
2023-07-07T10:28:55.694Z,9.711753
2023-07-07T10:29:55.693Z,9.711967
2023-07-07T10:30:55.681Z,9.712008
2023-07-07T10:31:55.731Z,9.712012
2023-07-07T10:32:55.694Z,9.711836
2023-07-07T10:33:55.679Z,9.711636
2023-07-07T10:34:55.663Z,9.711686
2023-07-07T10:35:55.643Z,9.711687
2023-07-07T10:36:55.650Z,9.711758
2023-07-07T10:37:55.616Z,9.711730
2023-07-07T10:38:56.968Z,9.711699
2023-07-07T10:39:56.642Z,9.711707
2023-07-07T10:40:55.607Z,9.711679
2023-07-07T10:41:55.590Z,9.711623
2023-07-07T10:42:55.570Z,9.711678
2023-07-07T10:43:56.470Z,9.711654
2023-07-07T10:44:55.607Z,9.711667
2023-07-07T10:45:55.620Z,9.711653
2023-07-07T10:46:55.573Z,9.711736
2023-07-07T10:47:55.645Z,9.711711
2023-07-07T10:48:55.542Z,9.711781
2023-07-07T10:49:55.553Z,9.711746
2023-07-07T10:50:55.529Z,9.711589
2023-07-07T10:51:56.045Z,9.711614
2023-07-07T10:53:56.538Z,9.711562
2023-07-07T10:54:55.501Z,9.711582
2023-07-07T10:55:55.522Z,9.711574
2023-07-07T10:56:55.553Z,9.711603
2023-07-07T10:57:55.541Z,9.711667
2023-07-07T10:58:55.499Z,9.711665
2023-07-07T10:59:55.519Z,9.711657
2023-07-07T11:00:55.539Z,9.711591
2023-07-07T11:01:55.925Z,9.711698
2023-07-07T11:02:55.813Z,9.711643
2023-07-07T11:03:57.277Z,9.711710
2023-07-07T11:04:57.565Z,9.711690
2023-07-07T11:06:04.129Z,9.711778
2023-07-07T11:06:57.471Z,9.711660
2023-07-07T11:07:55.429Z,9.711657
2023-07-07T11:08:56.413Z,9.711570
2023-07-07T11:09:57.013Z,9.711661
2023-07-07T11:10:55.415Z,9.711642
2023-07-07T11:11:55.360Z,9.711630
2023-07-07T11:12:55.398Z,9.711580
2023-07-07T11:13:55.454Z,9.711640
2023-07-07T11:14:55.352Z,9.711559
2023-07-07T11:15:55.337Z,9.711652
2023-07-07T11:16:55.386Z,9.711766
2023-07-07T11:17:55.339Z,9.711704
2023-07-07T11:18:55.280Z,9.711635
2023-07-07T11:19:55.784Z,9.711706
2023-07-07T11:20:57.214Z,9.711662
2023-07-07T11:21:55.262Z,9.711685
2023-07-07T11:22:56.291Z,9.711679
2023-07-07T11:23:55.249Z,9.711649
2023-07-07T11:24:57.227Z,9.711690
2023-07-07T11:25:56.234Z,9.711682
2023-07-07T11:26:55.233Z,9.711645
2023-07-07T11:27:55.291Z,9.711724
2023-07-07T11:28:55.249Z,9.711739
2023-07-07T11:29:55.248Z,9.711635
2023-07-07T11:30:55.231Z,9.711721
2023-07-07T11:31:55.264Z,9.711699
2023-07-07T11:32:55.222Z,9.711663
2023-07-07T11:33:55.173Z,9.711467
2023-07-07T11:34:55.170Z,9.711572
2023-07-07T11:35:55.157Z,9.711588
2023-07-07T11:36:55.186Z,9.711616
2023-07-07T11:37:55.144Z,9.711427
2023-07-07T11:38:55.151Z,9.711508
2023-07-07T11:39:55.133Z,9.711549
2023-07-07T11:40:55.141Z,9.711524
2023-07-07T11:41:55.123Z,9.711522
2023-07-07T11:42:55.121Z,9.711669
2023-07-07T11:43:55.127Z,9.711615
2023-07-07T11:44:55.118Z,9.711428
2023-07-07T11:45:55.082Z,9.711663
2023-07-07T11:46:55.124Z,9.711663
2023-07-07T11:47:55.131Z,9.711612
2023-07-07T11:48:55.057Z,9.711725
2023-07-07T11:49:55.044Z,9.711644
2023-07-07T11:50:55.178Z,9.711666
2023-07-07T11:51:55.899Z,9.711698
2023-07-07T11:52:55.021Z,9.711708
2023-07-07T11:53:55.021Z,9.711794
2023-07-07T11:54:55.051Z,9.711844
2023-07-07T11:55:55.065Z,9.711782
2023-07-07T11:56:55.029Z,9.711943
2023-07-07T11:57:55.010Z,9.711893
2023-07-07T11:58:54.991Z,9.712046